sensor_id;sensor_type;location;lat;lon;timestamp;P1;durP1;ratioP1;P2;durP2;ratioP2
66800;SDS011;53703;50.326;19.122;2023-03-26T00:01:35;4.50;;;2.30;;
66800;SDS011;53703;50.326;19.122;2023-03-26T00:04:30;4.70;;;2.50;;
66800;SDS011;53703;50.326;19.122;2023-03-26T00:07:24;3.90;;;2.40;;
66800;SDS011;53703;50.326;19.122;2023-03-26T00:10:19;4.90;;;2.50;;
66800;SDS011;53703;50.326;19.122;2023-03-26T00:13:13;5.60;;;2.70;;
66800;SDS011;53703;50.326;19.122;2023-03-26T00:16:16;5.20;;;2.30;;
66800;SDS011;53703;50.326;19.122;2023-03-26T00:19:31;4.30;;;2.30;;
66800;SDS011;53703;50.326;19.122;2023-03-26T00:22:27;4.80;;;2.70;;
66800;SDS011;53703;50.326;19.122;2023-03-26T00:25:22;7.20;;;2.40;;
66800;SDS011;53703;50.326;19.122;2023-03-26T00:28:16;6.40;;;2.30;;
66800;SDS011;53703;50.326;19.122;2023-03-26T00:31:12;7.00;;;2.50;;
66800;SDS011;53703;50.326;19.122;2023-03-26T00:34:07;4.60;;;2.40;;
66800;SDS011;53703;50.326;19.122;2023-03-26T00:37:01;5.40;;;2.50;;
66800;SDS011;53703;50.326;19.122;2023-03-26T00:39:56;5.30;;;2.40;;
66800;SDS011;53703;50.326;19.122;2023-03-26T00:42:54;4.60;;;2.30;;
66800;SDS011;53703;50.326;19.122;2023-03-26T00:45:49;5.70;;;2.20;;
66800;SDS011;53703;50.326;19.122;2023-03-26T00:48:46;4.60;;;2.20;;
66800;SDS011;53703;50.326;19.122;2023-03-26T00:51:41;5.90;;;2.20;;
66800;SDS011;53703;50.326;19.122;2023-03-26T00:54:35;4.70;;;2.10;;
66800;SDS011;53703;50.326;19.122;2023-03-26T00:57:29;4.30;;;2.00;;
66800;SDS011;53703;50.326;19.122;2023-03-26T01:00:30;3.90;;;2.00;;
66800;SDS011;53703;50.326;19.122;2023-03-26T01:03:27;4.40;;;2.10;;
66800;SDS011;53703;50.326;19.122;2023-03-26T01:06:26;4.50;;;1.90;;
66800;SDS011;53703;50.326;19.122;2023-03-26T01:09:26;5.40;;;2.10;;
66800;SDS011;53703;50.326;19.122;2023-03-26T01:12:32;4.50;;;2.20;;
66800;SDS011;53703;50.326;19.122;2023-03-26T01:15:27;3.20;;;1.70;;
66800;SDS011;53703;50.326;19.122;2023-03-26T01:18:22;4.40;;;1.90;;
66800;SDS011;53703;50.326;19.122;2023-03-26T01:21:21;4.80;;;1.90;;
66800;SDS011;53703;50.326;19.122;2023-03-26T01:24:20;4.50;;;2.10;;
66800;SDS011;53703;50.326;19.122;2023-03-26T01:27:21;3.80;;;1.90;;
66800;SDS011;53703;50.326;19.122;2023-03-26T01:30:26;4.20;;;1.80;;
66800;SDS011;53703;50.326;19.122;2023-03-26T01:33:28;4.20;;;2.00;;
66800;SDS011;53703;50.326;19.122;2023-03-26T01:36:49;4.00;;;2.10;;
66800;SDS011;53703;50.326;19.122;2023-03-26T01:39:51;3.80;;;1.90;;
66800;SDS011;53703;50.326;19.122;2023-03-26T01:42:58;6.20;;;2.10;;
66800;SDS011;53703;50.326;19.122;2023-03-26T01:46:01;6.00;;;2.10;;
66800;SDS011;53703;50.326;19.122;2023-03-26T01:48:57;5.00;;;2.00;;
66800;SDS011;53703;50.326;19.122;2023-03-26T01:51:53;3.20;;;1.90;;
66800;SDS011;53703;50.326;19.122;2023-03-26T01:54:48;4.90;;;2.10;;
66800;SDS011;53703;50.326;19.122;2023-03-26T01:57:48;3.90;;;2.10;;
66800;SDS011;53703;50.326;19.122;2023-03-26T02:00:51;4.50;;;2.20;;
66800;SDS011;53703;50.326;19.122;2023-03-26T02:03:54;5.40;;;2.10;;
66800;SDS011;53703;50.326;19.122;2023-03-26T02:07:01;5.00;;;2.20;;
66800;SDS011;53703;50.326;19.122;2023-03-26T02:10:01;3.20;;;2.00;;
66800;SDS011;53703;50.326;19.122;2023-03-26T02:13:01;3.80;;;2.10;;
66800;SDS011;53703;50.326;19.122;2023-03-26T02:15:57;4.30;;;2.10;;
66800;SDS011;53703;50.326;19.122;2023-03-26T02:18:52;4.60;;;2.30;;
66800;SDS011;53703;50.326;19.122;2023-03-26T02:21:49;3.70;;;2.10;;
66800;SDS011;53703;50.326;19.122;2023-03-26T02:24:43;4.80;;;2.30;;
66800;SDS011;53703;50.326;19.122;2023-03-26T02:27:37;3.80;;;2.20;;
66800;SDS011;53703;50.326;19.122;2023-03-26T02:30:31;3.90;;;1.90;;
66800;SDS011;53703;50.326;19.122;2023-03-26T02:33:25;3.30;;;1.90;;
66800;SDS011;53703;50.326;19.122;2023-03-26T02:36:20;3.60;;;1.90;;
66800;SDS011;53703;50.326;19.122;2023-03-26T02:39:18;7.40;;;1.90;;
66800;SDS011;53703;50.326;19.122;2023-03-26T02:42:11;3.30;;;1.90;;
66800;SDS011;53703;50.326;19.122;2023-03-26T02:45:07;4.50;;;2.00;;
66800;SDS011;53703;50.326;19.122;2023-03-26T02:48:01;3.90;;;2.00;;
66800;SDS011;53703;50.326;19.122;2023-03-26T02:50:58;5.20;;;2.00;;
66800;SDS011;53703;50.326;19.122;2023-03-26T02:53:51;4.40;;;1.80;;
66800;SDS011;53703;50.326;19.122;2023-03-26T02:56:46;2.90;;;1.70;;
66800;SDS011;53703;50.326;19.122;2023-03-26T02:59:40;3.00;;;1.80;;
66800;SDS011;53703;50.326;19.122;2023-03-26T03:02:36;3.50;;;1.50;;
66800;SDS011;53703;50.326;19.122;2023-03-26T03:05:30;3.70;;;1.70;;
66800;SDS011;53703;50.326;19.122;2023-03-26T03:08:28;4.60;;;2.00;;
66800;SDS011;53703;50.326;19.122;2023-03-26T03:11:22;4.10;;;1.90;;
66800;SDS011;53703;50.326;19.122;2023-03-26T03:14:16;6.90;;;1.90;;
66800;SDS011;53703;50.326;19.122;2023-03-26T03:16:56;3.30;;;1.90;;
66800;SDS011;53703;50.326;19.122;2023-03-26T03:19:49;3.80;;;1.70;;
66800;SDS011;53703;50.326;19.122;2023-03-26T03:22:44;5.40;;;2.10;;
66800;SDS011;53703;50.326;19.122;2023-03-26T03:25:38;5.10;;;1.80;;
66800;SDS011;53703;50.326;19.122;2023-03-26T03:28:32;3.70;;;1.90;;
66800;SDS011;53703;50.326;19.122;2023-03-26T03:31:27;3.80;;;1.70;;
66800;SDS011;53703;50.326;19.122;2023-03-26T03:34:21;4.80;;;1.90;;
66800;SDS011;53703;50.326;19.122;2023-03-26T03:37:16;2.70;;;1.80;;
66800;SDS011;53703;50.326;19.122;2023-03-26T03:40:11;4.20;;;2.10;;
66800;SDS011;53703;50.326;19.122;2023-03-26T03:43:05;2.80;;;1.90;;
66800;SDS011;53703;50.326;19.122;2023-03-26T03:45:59;4.40;;;1.90;;
66800;SDS011;53703;50.326;19.122;2023-03-26T03:48:53;8.90;;;1.90;;
66800;SDS011;53703;50.326;19.122;2023-03-26T03:51:48;5.00;;;2.40;;
66800;SDS011;53703;50.326;19.122;2023-03-26T03:54:41;5.70;;;2.40;;
66800;SDS011;53703;50.326;19.122;2023-03-26T03:57:36;5.50;;;2.40;;
66800;SDS011;53703;50.326;19.122;2023-03-26T04:00:31;5.90;;;2.30;;
66800;SDS011;53703;50.326;19.122;2023-03-26T04:03:28;2.90;;;1.80;;
66800;SDS011;53703;50.326;19.122;2023-03-26T04:06:28;3.80;;;2.10;;
66800;SDS011;53703;50.326;19.122;2023-03-26T04:09:22;3.30;;;2.10;;
66800;SDS011;53703;50.326;19.122;2023-03-26T04:12:16;4.30;;;1.90;;
66800;SDS011;53703;50.326;19.122;2023-03-26T04:15:11;9.20;;;2.20;;
66800;SDS011;53703;50.326;19.122;2023-03-26T04:18:06;7.50;;;2.20;;
66800;SDS011;53703;50.326;19.122;2023-03-26T04:21:01;4.80;;;2.10;;
66800;SDS011;53703;50.326;19.122;2023-03-26T04:23:57;4.40;;;2.20;;
66800;SDS011;53703;50.326;19.122;2023-03-26T04:26:37;5.60;;;2.20;;
66800;SDS011;53703;50.326;19.122;2023-03-26T04:29:32;4.80;;;2.00;;
66800;SDS011;53703;50.326;19.122;2023-03-26T04:32:32;5.20;;;2.00;;
66800;SDS011;53703;50.326;19.122;2023-03-26T04:35:28;4.10;;;1.90;;
66800;SDS011;53703;50.326;19.122;2023-03-26T04:38:25;3.60;;;1.90;;
66800;SDS011;53703;50.326;19.122;2023-03-26T04:41:20;8.70;;;2.00;;
66800;SDS011;53703;50.326;19.122;2023-03-26T04:44:16;5.00;;;1.90;;
66800;SDS011;53703;50.326;19.122;2023-03-26T04:47:12;5.30;;;2.10;;
66800;SDS011;53703;50.326;19.122;2023-03-26T04:50:08;4.80;;;2.00;;
66800;SDS011;53703;50.326;19.122;2023-03-26T04:53:03;3.30;;;1.80;;
66800;SDS011;53703;50.326;19.122;2023-03-26T04:55:59;3.50;;;1.90;;
66800;SDS011;53703;50.326;19.122;2023-03-26T04:58:59;5.20;;;2.20;;
66800;SDS011;53703;50.326;19.122;2023-03-26T05:01:54;4.20;;;2.00;;
66800;SDS011;53703;50.326;19.122;2023-03-26T05:04:50;6.40;;;2.50;;
66800;SDS011;53703;50.326;19.122;2023-03-26T05:07:44;3.80;;;1.70;;
66800;SDS011;53703;50.326;19.122;2023-03-26T05:10:38;4.90;;;2.00;;
66800;SDS011;53703;50.326;19.122;2023-03-26T05:13:32;4.00;;;2.00;;
66800;SDS011;53703;50.326;19.122;2023-03-26T05:16:26;3.60;;;1.60;;
66800;SDS011;53703;50.326;19.122;2023-03-26T05:19:22;4.60;;;1.90;;
66800;SDS011;53703;50.326;19.122;2023-03-26T05:22:16;4.20;;;2.00;;
66800;SDS011;53703;50.326;19.122;2023-03-26T05:25:10;3.10;;;1.60;;
66800;SDS011;53703;50.326;19.122;2023-03-26T05:28:05;4.90;;;1.60;;
66800;SDS011;53703;50.326;19.122;2023-03-26T05:31:00;4.70;;;1.70;;
66800;SDS011;53703;50.326;19.122;2023-03-26T05:33:54;5.60;;;1.80;;
66800;SDS011;53703;50.326;19.122;2023-03-26T05:36:50;4.00;;;2.00;;
66800;SDS011;53703;50.326;19.122;2023-03-26T05:39:44;4.00;;;2.00;;
66800;SDS011;53703;50.326;19.122;2023-03-26T05:42:39;3.50;;;1.70;;
66800;SDS011;53703;50.326;19.122;2023-03-26T05:45:33;3.70;;;1.70;;
66800;SDS011;53703;50.326;19.122;2023-03-26T05:48:27;2.70;;;1.60;;
66800;SDS011;53703;50.326;19.122;2023-03-26T05:51:21;3.60;;;1.70;;
66800;SDS011;53703;50.326;19.122;2023-03-26T05:54:15;3.80;;;1.70;;
66800;SDS011;53703;50.326;19.122;2023-03-26T05:57:10;4.30;;;1.80;;
66800;SDS011;53703;50.326;19.122;2023-03-26T06:00:05;4.80;;;1.70;;
66800;SDS011;53703;50.326;19.122;2023-03-26T06:03:02;4.60;;;1.60;;
66800;SDS011;53703;50.326;19.122;2023-03-26T06:05:57;5.20;;;1.70;;
66800;SDS011;53703;50.326;19.122;2023-03-26T06:08:52;3.60;;;1.60;;
66800;SDS011;53703;50.326;19.122;2023-03-26T06:11:52;3.40;;;1.60;;
66800;SDS011;53703;50.326;19.122;2023-03-26T06:14:46;4.10;;;1.60;;
66800;SDS011;53703;50.326;19.122;2023-03-26T06:17:40;2.50;;;1.50;;
66800;SDS011;53703;50.326;19.122;2023-03-26T06:20:34;5.70;;;1.60;;
66800;SDS011;53703;50.326;19.122;2023-03-26T06:23:28;3.30;;;1.50;;
66800;SDS011;53703;50.326;19.122;2023-03-26T06:26:23;3.80;;;1.50;;
66800;SDS011;53703;50.326;19.122;2023-03-26T06:29:17;2.60;;;1.40;;
66800;SDS011;53703;50.326;19.122;2023-03-26T06:32:11;6.80;;;1.80;;
66800;SDS011;53703;50.326;19.122;2023-03-26T06:35:10;4.40;;;1.70;;
66800;SDS011;53703;50.326;19.122;2023-03-26T06:38:05;3.60;;;1.40;;
66800;SDS011;53703;50.326;19.122;2023-03-26T06:41:04;6.70;;;1.70;;
66800;SDS011;53703;50.326;19.122;2023-03-26T06:43:58;3.10;;;1.50;;
66800;SDS011;53703;50.326;19.122;2023-03-26T06:46:52;2.80;;;1.50;;
66800;SDS011;53703;50.326;19.122;2023-03-26T06:49:46;3.30;;;1.60;;
66800;SDS011;53703;50.326;19.122;2023-03-26T06:52:40;3.10;;;1.50;;
66800;SDS011;53703;50.326;19.122;2023-03-26T06:55:34;4.90;;;1.40;;
66800;SDS011;53703;50.326;19.122;2023-03-26T06:58:29;2.70;;;1.50;;
66800;SDS011;53703;50.326;19.122;2023-03-26T07:01:23;4.40;;;1.50;;
66800;SDS011;53703;50.326;19.122;2023-03-26T07:04:17;3.60;;;1.60;;
66800;SDS011;53703;50.326;19.122;2023-03-26T07:07:12;3.20;;;1.40;;
66800;SDS011;53703;50.326;19.122;2023-03-26T07:10:08;3.60;;;1.50;;
66800;SDS011;53703;50.326;19.122;2023-03-26T07:15:56;4.50;;;1.20;;
66800;SDS011;53703;50.326;19.122;2023-03-26T07:18:51;2.80;;;1.30;;
66800;SDS011;53703;50.326;19.122;2023-03-26T07:21:46;2.80;;;1.60;;
66800;SDS011;53703;50.326;19.122;2023-03-26T07:24:42;3.10;;;1.50;;
66800;SDS011;53703;50.326;19.122;2023-03-26T07:27:45;5.30;;;1.60;;
66800;SDS011;53703;50.326;19.122;2023-03-26T07:30:48;2.60;;;1.50;;
66800;SDS011;53703;50.326;19.122;2023-03-26T07:34:12;2.90;;;1.40;;
66800;SDS011;53703;50.326;19.122;2023-03-26T07:37:23;4.40;;;1.50;;
66800;SDS011;53703;50.326;19.122;2023-03-26T07:40:39;4.30;;;1.20;;
66800;SDS011;53703;50.326;19.122;2023-03-26T07:43:49;4.70;;;1.30;;
66800;SDS011;53703;50.326;19.122;2023-03-26T07:46:54;3.70;;;1.50;;
66800;SDS011;53703;50.326;19.122;2023-03-26T07:49:51;3.70;;;1.30;;
66800;SDS011;53703;50.326;19.122;2023-03-26T07:52:48;2.90;;;1.50;;
66800;SDS011;53703;50.326;19.122;2023-03-26T07:55:45;3.60;;;1.30;;
66800;SDS011;53703;50.326;19.122;2023-03-26T07:59:13;3.00;;;1.30;;
66800;SDS011;53703;50.326;19.122;2023-03-26T08:02:35;2.50;;;1.40;;
66800;SDS011;53703;50.326;19.122;2023-03-26T08:05:40;2.90;;;1.40;;
66800;SDS011;53703;50.326;19.122;2023-03-26T08:08:44;4.70;;;1.50;;
66800;SDS011;53703;50.326;19.122;2023-03-26T08:11:49;3.80;;;1.60;;
66800;SDS011;53703;50.326;19.122;2023-03-26T08:14:51;4.40;;;1.40;;
66800;SDS011;53703;50.326;19.122;2023-03-26T08:21:09;4.00;;;1.60;;
66800;SDS011;53703;50.326;19.122;2023-03-26T08:24:12;4.50;;;1.50;;
66800;SDS011;53703;50.326;19.122;2023-03-26T08:27:15;4.80;;;1.50;;
66800;SDS011;53703;50.326;19.122;2023-03-26T08:30:19;6.70;;;1.60;;
66800;SDS011;53703;50.326;19.122;2023-03-26T08:33:16;7.10;;;1.40;;
66800;SDS011;53703;50.326;19.122;2023-03-26T08:36:11;3.40;;;1.60;;
66800;SDS011;53703;50.326;19.122;2023-03-26T08:39:06;5.90;;;1.90;;
66800;SDS011;53703;50.326;19.122;2023-03-26T08:42:21;3.90;;;1.80;;
66800;SDS011;53703;50.326;19.122;2023-03-26T08:45:58;5.90;;;1.70;;
66800;SDS011;53703;50.326;19.122;2023-03-26T08:49:24;3.70;;;1.20;;
66800;SDS011;53703;50.326;19.122;2023-03-26T08:53:28;2.40;;;1.10;;
66800;SDS011;53703;50.326;19.122;2023-03-26T08:56:48;3.90;;;1.40;;
66800;SDS011;53703;50.326;19.122;2023-03-26T09:04:00;2.80;;;1.30;;
66800;SDS011;53703;50.326;19.122;2023-03-26T09:07:42;2.70;;;1.50;;
66800;SDS011;53703;50.326;19.122;2023-03-26T09:14:35;5.60;;;1.30;;
66800;SDS011;53703;50.326;19.122;2023-03-26T09:17:52;3.60;;;1.40;;
66800;SDS011;53703;50.326;19.122;2023-03-26T09:21:32;4.70;;;1.30;;
66800;SDS011;53703;50.326;19.122;2023-03-26T09:25:00;2.30;;;1.20;;
66800;SDS011;53703;50.326;19.122;2023-03-26T09:28:42;2.80;;;1.40;;
66800;SDS011;53703;50.326;19.122;2023-03-26T09:32:16;3.80;;;1.30;;
66800;SDS011;53703;50.326;19.122;2023-03-26T09:35:47;3.00;;;1.20;;
66800;SDS011;53703;50.326;19.122;2023-03-26T09:38:46;2.80;;;1.10;;
66800;SDS011;53703;50.326;19.122;2023-03-26T09:41:51;1.70;;;1.10;;
66800;SDS011;53703;50.326;19.122;2023-03-26T09:45:17;2.90;;;1.50;;
66800;SDS011;53703;50.326;19.122;2023-03-26T09:51:57;3.20;;;1.30;;
66800;SDS011;53703;50.326;19.122;2023-03-26T09:55:14;3.10;;;1.30;;
66800;SDS011;53703;50.326;19.122;2023-03-26T09:58:28;2.20;;;1.20;;
66800;SDS011;53703;50.326;19.122;2023-03-26T10:01:41;2.40;;;1.20;;
66800;SDS011;53703;50.326;19.122;2023-03-26T10:11:42;4.00;;;1.70;;
66800;SDS011;53703;50.326;19.122;2023-03-26T10:14:55;2.50;;;1.40;;
66800;SDS011;53703;50.326;19.122;2023-03-26T10:21:24;4.10;;;1.30;;
66800;SDS011;53703;50.326;19.122;2023-03-26T10:24:36;2.90;;;1.40;;
66800;SDS011;53703;50.326;19.122;2023-03-26T10:27:48;3.20;;;1.70;;
66800;SDS011;53703;50.326;19.122;2023-03-26T10:30:58;3.80;;;1.50;;
66800;SDS011;53703;50.326;19.122;2023-03-26T10:34:35;3.90;;;1.70;;
66800;SDS011;53703;50.326;19.122;2023-03-26T10:37:52;3.20;;;1.60;;
66800;SDS011;53703;50.326;19.122;2023-03-26T10:41:00;4.50;;;1.60;;
66800;SDS011;53703;50.326;19.122;2023-03-26T10:48:16;2.90;;;1.60;;
66800;SDS011;53703;50.326;19.122;2023-03-26T10:54:47;5.50;;;1.80;;
66800;SDS011;53703;50.326;19.122;2023-03-26T10:57:46;4.30;;;1.90;;
66800;SDS011;53703;50.326;19.122;2023-03-26T11:00:48;5.90;;;2.00;;
66800;SDS011;53703;50.326;19.122;2023-03-26T11:04:13;2.70;;;1.60;;
66800;SDS011;53703;50.326;19.122;2023-03-26T11:07:18;3.60;;;1.90;;
66800;SDS011;53703;50.326;19.122;2023-03-26T11:10:19;2.90;;;1.60;;
66800;SDS011;53703;50.326;19.122;2023-03-26T11:13:38;6.10;;;2.20;;
66800;SDS011;53703;50.326;19.122;2023-03-26T11:16:47;5.20;;;1.90;;
66800;SDS011;53703;50.326;19.122;2023-03-26T11:19:50;4.60;;;2.60;;
66800;SDS011;53703;50.326;19.122;2023-03-26T11:22:59;5.00;;;2.10;;
66800;SDS011;53703;50.326;19.122;2023-03-26T11:26:09;2.60;;;1.80;;
66800;SDS011;53703;50.326;19.122;2023-03-26T11:29:13;4.00;;;1.80;;
66800;SDS011;53703;50.326;19.122;2023-03-26T11:32:23;3.30;;;1.40;;
66800;SDS011;53703;50.326;19.122;2023-03-26T11:35:28;4.50;;;1.50;;
66800;SDS011;53703;50.326;19.122;2023-03-26T11:38:33;3.70;;;1.60;;
66800;SDS011;53703;50.326;19.122;2023-03-26T11:41:13;2.50;;;1.60;;
66800;SDS011;53703;50.326;19.122;2023-03-26T11:44:20;3.60;;;1.50;;
66800;SDS011;53703;50.326;19.122;2023-03-26T11:47:19;4.80;;;1.90;;
66800;SDS011;53703;50.326;19.122;2023-03-26T11:50:07;3.00;;;1.60;;
66800;SDS011;53703;50.326;19.122;2023-03-26T11:53:12;3.60;;;1.50;;
66800;SDS011;53703;50.326;19.122;2023-03-26T11:56:01;2.70;;;1.40;;
66800;SDS011;53703;50.326;19.122;2023-03-26T11:59:07;4.70;;;1.50;;
66800;SDS011;53703;50.326;19.122;2023-03-26T12:02:27;2.50;;;1.50;;
66800;SDS011;53703;50.326;19.122;2023-03-26T12:05:25;2.60;;;1.30;;
66800;SDS011;53703;50.326;19.122;2023-03-26T12:08:38;3.00;;;1.50;;
66800;SDS011;53703;50.326;19.122;2023-03-26T12:11:37;3.30;;;1.60;;
66800;SDS011;53703;50.326;19.122;2023-03-26T12:14:33;3.40;;;1.60;;
66800;SDS011;53703;50.326;19.122;2023-03-26T12:17:34;2.90;;;1.40;;
66800;SDS011;53703;50.326;19.122;2023-03-26T12:20:35;4.60;;;1.50;;
66800;SDS011;53703;50.326;19.122;2023-03-26T12:23:41;3.20;;;1.50;;
66800;SDS011;53703;50.326;19.122;2023-03-26T12:26:46;4.70;;;1.70;;
66800;SDS011;53703;50.326;19.122;2023-03-26T12:29:50;3.50;;;1.60;;
66800;SDS011;53703;50.326;19.122;2023-03-26T12:32:51;3.00;;;1.50;;
66800;SDS011;53703;50.326;19.122;2023-03-26T12:35:50;3.70;;;1.80;;
66800;SDS011;53703;50.326;19.122;2023-03-26T12:39:20;4.90;;;1.70;;
66800;SDS011;53703;50.326;19.122;2023-03-26T12:42:41;2.50;;;1.50;;
66800;SDS011;53703;50.326;19.122;2023-03-26T12:46:21;4.10;;;1.70;;
66800;SDS011;53703;50.326;19.122;2023-03-26T12:49:37;2.70;;;1.50;;
66800;SDS011;53703;50.326;19.122;2023-03-26T12:52:46;3.70;;;1.60;;
66800;SDS011;53703;50.326;19.122;2023-03-26T12:55:56;4.50;;;1.70;;
66800;SDS011;53703;50.326;19.122;2023-03-26T12:59:18;2.60;;;1.60;;
66800;SDS011;53703;50.326;19.122;2023-03-26T13:02:56;2.90;;;1.90;;
66800;SDS011;53703;50.326;19.122;2023-03-26T13:06:19;3.00;;;1.50;;
66800;SDS011;53703;50.326;19.122;2023-03-26T13:13:39;4.90;;;2.30;;
66800;SDS011;53703;50.326;19.122;2023-03-26T13:16:52;5.30;;;2.70;;
66800;SDS011;53703;50.326;19.122;2023-03-26T13:19:57;5.00;;;2.20;;
66800;SDS011;53703;50.326;19.122;2023-03-26T13:23:00;3.70;;;2.30;;
66800;SDS011;53703;50.326;19.122;2023-03-26T13:29:04;4.50;;;2.10;;
66800;SDS011;53703;50.326;19.122;2023-03-26T13:32:27;3.50;;;2.00;;
66800;SDS011;53703;50.326;19.122;2023-03-26T13:35:35;6.60;;;2.50;;
66800;SDS011;53703;50.326;19.122;2023-03-26T13:38:40;5.70;;;2.50;;
66800;SDS011;53703;50.326;19.122;2023-03-26T13:42:12;4.20;;;2.20;;
66800;SDS011;53703;50.326;19.122;2023-03-26T13:45:39;4.50;;;1.90;;
66800;SDS011;53703;50.326;19.122;2023-03-26T13:48:41;4.70;;;1.80;;
66800;SDS011;53703;50.326;19.122;2023-03-26T13:51:46;3.50;;;1.60;;
66800;SDS011;53703;50.326;19.122;2023-03-26T13:54:44;4.80;;;1.80;;
66800;SDS011;53703;50.326;19.122;2023-03-26T13:57:42;4.00;;;2.10;;
66800;SDS011;53703;50.326;19.122;2023-03-26T14:00:53;3.60;;;1.60;;
66800;SDS011;53703;50.326;19.122;2023-03-26T14:03:56;4.40;;;1.80;;
66800;SDS011;53703;50.326;19.122;2023-03-26T14:06:57;3.50;;;1.80;;
66800;SDS011;53703;50.326;19.122;2023-03-26T14:09:59;4.40;;;1.90;;
66800;SDS011;53703;50.326;19.122;2023-03-26T14:12:58;3.80;;;1.90;;
66800;SDS011;53703;50.326;19.122;2023-03-26T14:16:00;5.60;;;2.00;;
66800;SDS011;53703;50.326;19.122;2023-03-26T14:19:11;3.70;;;1.60;;
66800;SDS011;53703;50.326;19.122;2023-03-26T14:22:30;4.80;;;1.70;;
66800;SDS011;53703;50.326;19.122;2023-03-26T14:25:37;3.40;;;1.50;;
66800;SDS011;53703;50.326;19.122;2023-03-26T14:29:01;6.30;;;1.70;;
66800;SDS011;53703;50.326;19.122;2023-03-26T14:32:31;4.10;;;1.80;;
66800;SDS011;53703;50.326;19.122;2023-03-26T14:35:48;10.70;;;1.90;;
66800;SDS011;53703;50.326;19.122;2023-03-26T14:39:15;3.50;;;1.70;;
66800;SDS011;53703;50.326;19.122;2023-03-26T14:45:45;3.60;;;1.70;;
66800;SDS011;53703;50.326;19.122;2023-03-26T14:48:59;3.30;;;1.80;;
66800;SDS011;53703;50.326;19.122;2023-03-26T14:52:05;4.40;;;1.70;;
66800;SDS011;53703;50.326;19.122;2023-03-26T14:55:11;6.00;;;1.70;;
66800;SDS011;53703;50.326;19.122;2023-03-26T15:09:41;3.70;;;1.80;;
66800;SDS011;53703;50.326;19.122;2023-03-26T15:13:21;3.80;;;1.70;;
66800;SDS011;53703;50.326;19.122;2023-03-26T15:16:58;4.10;;;1.70;;
66800;SDS011;53703;50.326;19.122;2023-03-26T15:20:43;4.20;;;1.70;;
66800;SDS011;53703;50.326;19.122;2023-03-26T15:24:30;4.70;;;1.60;;
66800;SDS011;53703;50.326;19.122;2023-03-26T15:27:57;3.80;;;1.60;;
66800;SDS011;53703;50.326;19.122;2023-03-26T15:31:28;5.60;;;2.00;;
66800;SDS011;53703;50.326;19.122;2023-03-26T15:34:56;5.20;;;2.00;;
66800;SDS011;53703;50.326;19.122;2023-03-26T15:38:44;3.90;;;1.90;;
66800;SDS011;53703;50.326;19.122;2023-03-26T15:42:21;4.70;;;2.00;;
66800;SDS011;53703;50.326;19.122;2023-03-26T15:45:34;5.10;;;2.10;;
66800;SDS011;53703;50.326;19.122;2023-03-26T15:48:37;6.90;;;2.30;;
66800;SDS011;53703;50.326;19.122;2023-03-26T15:51:51;4.40;;;2.20;;
66800;SDS011;53703;50.326;19.122;2023-03-26T15:54:55;6.70;;;2.60;;
66800;SDS011;53703;50.326;19.122;2023-03-26T15:57:56;6.30;;;2.30;;
66800;SDS011;53703;50.326;19.122;2023-03-26T16:00:58;5.20;;;2.40;;
66800;SDS011;53703;50.326;19.122;2023-03-26T16:04:21;4.00;;;1.90;;
66800;SDS011;53703;50.326;19.122;2023-03-26T16:07:31;4.00;;;2.00;;
66800;SDS011;53703;50.326;19.122;2023-03-26T16:10:42;5.50;;;2.30;;
66800;SDS011;53703;50.326;19.122;2023-03-26T16:13:43;4.70;;;1.80;;
66800;SDS011;53703;50.326;19.122;2023-03-26T16:17:00;6.70;;;2.10;;
66800;SDS011;53703;50.326;19.122;2023-03-26T16:20:08;6.80;;;2.20;;
66800;SDS011;53703;50.326;19.122;2023-03-26T16:23:26;3.90;;;2.00;;
66800;SDS011;53703;50.326;19.122;2023-03-26T16:26:51;4.80;;;2.20;;
66800;SDS011;53703;50.326;19.122;2023-03-26T16:30:10;3.50;;;1.90;;
66800;SDS011;53703;50.326;19.122;2023-03-26T16:33:19;5.50;;;2.00;;
66800;SDS011;53703;50.326;19.122;2023-03-26T16:36:30;4.90;;;2.10;;
66800;SDS011;53703;50.326;19.122;2023-03-26T16:42:36;5.70;;;2.20;;
66800;SDS011;53703;50.326;19.122;2023-03-26T16:45:35;3.60;;;2.10;;
66800;SDS011;53703;50.326;19.122;2023-03-26T16:48:38;2.70;;;1.80;;
66800;SDS011;53703;50.326;19.122;2023-03-26T16:51:51;4.50;;;1.80;;
66800;SDS011;53703;50.326;19.122;2023-03-26T16:55:11;8.10;;;3.40;;
66800;SDS011;53703;50.326;19.122;2023-03-26T16:58:12;9.00;;;4.50;;
66800;SDS011;53703;50.326;19.122;2023-03-26T17:01:20;9.90;;;4.80;;
66800;SDS011;53703;50.326;19.122;2023-03-26T17:04:23;12.30;;;5.40;;
66800;SDS011;53703;50.326;19.122;2023-03-26T17:07:22;13.80;;;5.60;;
66800;SDS011;53703;50.326;19.122;2023-03-26T17:10:30;13.70;;;5.70;;
66800;SDS011;53703;50.326;19.122;2023-03-26T17:13:35;12.50;;;6.20;;
66800;SDS011;53703;50.326;19.122;2023-03-26T17:16:40;14.10;;;6.80;;
66800;SDS011;53703;50.326;19.122;2023-03-26T17:19:55;14.90;;;6.90;;
66800;SDS011;53703;50.326;19.122;2023-03-26T17:23:03;18.80;;;8.70;;
66800;SDS011;53703;50.326;19.122;2023-03-26T17:29:26;21.10;;;9.10;;
66800;SDS011;53703;50.326;19.122;2023-03-26T17:32:55;19.90;;;9.10;;
66800;SDS011;53703;50.326;19.122;2023-03-26T17:35:51;22.10;;;10.20;;
66800;SDS011;53703;50.326;19.122;2023-03-26T17:43:02;24.60;;;11.80;;
66800;SDS011;53703;50.326;19.122;2023-03-26T17:46:01;27.20;;;12.50;;
66800;SDS011;53703;50.326;19.122;2023-03-26T17:49:02;25.80;;;12.60;;
66800;SDS011;53703;50.326;19.122;2023-03-26T17:52:09;26.00;;;12.80;;
66800;SDS011;53703;50.326;19.122;2023-03-26T17:55:11;30.60;;;14.70;;
66800;SDS011;53703;50.326;19.122;2023-03-26T17:58:21;34.10;;;15.90;;
66800;SDS011;53703;50.326;19.122;2023-03-26T18:01:22;28.70;;;14.40;;
66800;SDS011;53703;50.326;19.122;2023-03-26T18:04:31;29.70;;;15.50;;
66800;SDS011;53703;50.326;19.122;2023-03-26T18:11:33;35.90;;;17.00;;
66800;SDS011;53703;50.326;19.122;2023-03-26T18:18:12;37.40;;;18.30;;
66800;SDS011;53703;50.326;19.122;2023-03-26T18:21:10;37.20;;;17.80;;
66800;SDS011;53703;50.326;19.122;2023-03-26T18:24:14;42.70;;;19.20;;
66800;SDS011;53703;50.326;19.122;2023-03-26T18:27:12;38.10;;;18.80;;
66800;SDS011;53703;50.326;19.122;2023-03-26T18:30:16;38.20;;;18.50;;
66800;SDS011;53703;50.326;19.122;2023-03-26T18:33:13;39.50;;;18.80;;
66800;SDS011;53703;50.326;19.122;2023-03-26T18:36:09;40.10;;;20.00;;
66800;SDS011;53703;50.326;19.122;2023-03-26T18:39:05;40.10;;;19.40;;
66800;SDS011;53703;50.326;19.122;2023-03-26T18:42:04;39.20;;;18.80;;
66800;SDS011;53703;50.326;19.122;2023-03-26T18:45:19;43.40;;;20.50;;
66800;SDS011;53703;50.326;19.122;2023-03-26T18:48:41;38.10;;;19.40;;
66800;SDS011;53703;50.326;19.122;2023-03-26T18:51:37;47.80;;;20.80;;
66800;SDS011;53703;50.326;19.122;2023-03-26T18:54:47;41.90;;;20.90;;
66800;SDS011;53703;50.326;19.122;2023-03-26T18:57:43;45.90;;;20.60;;
66800;SDS011;53703;50.326;19.122;2023-03-26T19:00:40;42.70;;;19.50;;
66800;SDS011;53703;50.326;19.122;2023-03-26T19:03:36;47.20;;;20.60;;
66800;SDS011;53703;50.326;19.122;2023-03-26T19:06:33;53.10;;;23.00;;
66800;SDS011;53703;50.326;19.122;2023-03-26T19:09:32;48.60;;;22.50;;
66800;SDS011;53703;50.326;19.122;2023-03-26T19:12:30;46.10;;;21.00;;
66800;SDS011;53703;50.326;19.122;2023-03-26T19:15:26;45.80;;;19.90;;
66800;SDS011;53703;50.326;19.122;2023-03-26T19:18:23;69.60;;;27.80;;
66800;SDS011;53703;50.326;19.122;2023-03-26T19:21:18;60.20;;;24.40;;
66800;SDS011;53703;50.326;19.122;2023-03-26T19:24:13;54.40;;;22.80;;